KCDC/CDC METAR and TAF weather

Enter ICAO airport designator
Station Type Date Time Source
KCDC METAR 2019/12/14 10:53 UTC NOAA

KCDC 141053Z AUTO 21004KT 10SM CLR 03/00 A2986 RMK AO2 SLP090 T00280000


Station Type Date Time Source
KCDC Decoded METAR 2019/12/14 10:53 UTC NOAA

CEDAR CITY MUN AIRPORT, UT, United States (KCDC) 37-42N 113-06W 1714M
Dec 14, 2019 - 05:53 AM EST / 2019.12.14 1053 UTC
Wind: from the SSW (210 degrees) at 5 MPH (4 KT):0
Visibility: 10 mile(s):0
Sky conditions: clear
Temperature: 37.0 F (2.8 C)
Dew Point: 32.0 F (0.0 C)
Relative Humidity: 81%
Pressure (altimeter): 29.86 in. Hg (1011 hPa)
ob: KCDC 141053Z AUTO 21004KT 10SM CLR 03/00 A2986 RMK AO2 SLP090 T00280000
cycle: 11

Station Type Date Time Source
KCDC TAF 2019/12/14 06:45 UTC NOAA

TAF KCDC 140542Z 1406/1506 20008KT P6SM BKN080
FM141800 24012KT P6SM VCSH SCT035 OVC050

Example: see airport list